sensor_id;sensor_type;location;lat;lon;timestamp;P1;durP1;ratioP1;P2;durP2;ratioP2
71080;SDS011;58740;50.672;18.690;2022-10-17T00:01:06;24.80;;;14.10;;
71080;SDS011;58740;50.672;18.690;2022-10-17T00:03:35;22.30;;;12.00;;
71080;SDS011;58740;50.672;18.690;2022-10-17T00:06:13;23.10;;;12.40;;
71080;SDS011;58740;50.672;18.690;2022-10-17T00:08:43;23.60;;;12.90;;
71080;SDS011;58740;50.672;18.690;2022-10-17T00:11:21;23.40;;;13.90;;
71080;SDS011;58740;50.672;18.690;2022-10-17T00:13:53;24.40;;;13.10;;
71080;SDS011;58740;50.672;18.690;2022-10-17T00:16:24;24.20;;;14.40;;
71080;SDS011;58740;50.672;18.690;2022-10-17T00:18:57;25.50;;;13.50;;
71080;SDS011;58740;50.672;18.690;2022-10-17T00:21:25;20.90;;;14.90;;
71080;SDS011;58740;50.672;18.690;2022-10-17T00:23:54;20.70;;;12.20;;
71080;SDS011;58740;50.672;18.690;2022-10-17T00:26:22;23.70;;;13.20;;
71080;SDS011;58740;50.672;18.690;2022-10-17T00:28:51;26.00;;;14.00;;
71080;SDS011;58740;50.672;18.690;2022-10-17T00:31:20;22.90;;;13.50;;
71080;SDS011;58740;50.672;18.690;2022-10-17T00:33:50;21.60;;;12.00;;
71080;SDS011;58740;50.672;18.690;2022-10-17T00:36:23;27.00;;;13.20;;
71080;SDS011;58740;50.672;18.690;2022-10-17T00:38:54;19.60;;;12.30;;
71080;SDS011;58740;50.672;18.690;2022-10-17T00:41:29;21.70;;;11.40;;
71080;SDS011;58740;50.672;18.690;2022-10-17T00:47:01;21.80;;;10.50;;
71080;SDS011;58740;50.672;18.690;2022-10-17T00:49:33;16.90;;;11.30;;
71080;SDS011;58740;50.672;18.690;2022-10-17T00:52:13;18.10;;;10.80;;
71080;SDS011;58740;50.672;18.690;2022-10-17T00:54:52;19.30;;;12.80;;
71080;SDS011;58740;50.672;18.690;2022-10-17T00:57:22;19.60;;;10.90;;
71080;SDS011;58740;50.672;18.690;2022-10-17T00:59:55;18.10;;;10.30;;
71080;SDS011;58740;50.672;18.690;2022-10-17T01:02:25;19.30;;;10.90;;
71080;SDS011;58740;50.672;18.690;2022-10-17T01:04:55;15.90;;;10.20;;
71080;SDS011;58740;50.672;18.690;2022-10-17T01:07:27;16.50;;;9.40;;
71080;SDS011;58740;50.672;18.690;2022-10-17T01:10:03;19.30;;;10.60;;
71080;SDS011;58740;50.672;18.690;2022-10-17T01:12:43;18.10;;;10.50;;
71080;SDS011;58740;50.672;18.690;2022-10-17T01:24:23;19.10;;;9.90;;
71080;SDS011;58740;50.672;18.690;2022-10-17T01:27:33;17.70;;;10.30;;
71080;SDS011;58740;50.672;18.690;2022-10-17T01:30:25;19.10;;;10.80;;
71080;SDS011;58740;50.672;18.690;2022-10-17T01:32:57;17.70;;;11.00;;
71080;SDS011;58740;50.672;18.690;2022-10-17T01:35:38;18.70;;;10.20;;
71080;SDS011;58740;50.672;18.690;2022-10-17T01:38:17;16.50;;;10.40;;
71080;SDS011;58740;50.672;18.690;2022-10-17T01:40:59;17.90;;;10.80;;
71080;SDS011;58740;50.672;18.690;2022-10-17T01:43:42;17.30;;;10.10;;
71080;SDS011;58740;50.672;18.690;2022-10-17T01:46:31;19.00;;;10.70;;
71080;SDS011;58740;50.672;18.690;2022-10-17T01:49:05;17.30;;;10.10;;
71080;SDS011;58740;50.672;18.690;2022-10-17T01:51:42;15.10;;;9.40;;
71080;SDS011;58740;50.672;18.690;2022-10-17T01:54:30;18.80;;;10.50;;
71080;SDS011;58740;50.672;18.690;2022-10-17T01:57:14;18.50;;;11.10;;
71080;SDS011;58740;50.672;18.690;2022-10-17T01:59:49;17.30;;;9.90;;
71080;SDS011;58740;50.672;18.690;2022-10-17T02:02:19;15.30;;;9.60;;
71080;SDS011;58740;50.672;18.690;2022-10-17T02:04:49;18.20;;;10.20;;
71080;SDS011;58740;50.672;18.690;2022-10-17T02:07:18;19.90;;;10.90;;
71080;SDS011;58740;50.672;18.690;2022-10-17T02:09:46;18.30;;;11.20;;
71080;SDS011;58740;50.672;18.690;2022-10-17T02:15:27;19.30;;;9.90;;
71080;SDS011;58740;50.672;18.690;2022-10-17T02:21:22;19.40;;;10.50;;
71080;SDS011;58740;50.672;18.690;2022-10-17T02:27:13;18.80;;;10.70;;
71080;SDS011;58740;50.672;18.690;2022-10-17T02:29:49;19.70;;;11.00;;
71080;SDS011;58740;50.672;18.690;2022-10-17T02:32:54;20.30;;;11.40;;
71080;SDS011;58740;50.672;18.690;2022-10-17T02:35:30;20.80;;;11.10;;
71080;SDS011;58740;50.672;18.690;2022-10-17T02:38:04;20.60;;;11.30;;
71080;SDS011;58740;50.672;18.690;2022-10-17T02:40:35;21.60;;;11.40;;
71080;SDS011;58740;50.672;18.690;2022-10-17T02:43:04;22.70;;;13.00;;
71080;SDS011;58740;50.672;18.690;2022-10-17T02:45:33;20.50;;;11.10;;
71080;SDS011;58740;50.672;18.690;2022-10-17T02:50:42;22.00;;;11.90;;
71080;SDS011;58740;50.672;18.690;2022-10-17T02:53:14;21.30;;;12.40;;
71080;SDS011;58740;50.672;18.690;2022-10-17T02:55:57;19.30;;;11.30;;
71080;SDS011;58740;50.672;18.690;2022-10-17T02:58:32;23.20;;;13.20;;
71080;SDS011;58740;50.672;18.690;2022-10-17T03:01:03;21.30;;;12.20;;
71080;SDS011;58740;50.672;18.690;2022-10-17T03:03:32;18.70;;;11.60;;
71080;SDS011;58740;50.672;18.690;2022-10-17T03:06:00;20.20;;;12.60;;
71080;SDS011;58740;50.672;18.690;2022-10-17T03:08:27;20.30;;;11.00;;
71080;SDS011;58740;50.672;18.690;2022-10-17T03:10:55;23.00;;;13.60;;
71080;SDS011;58740;50.672;18.690;2022-10-17T03:13:23;20.70;;;11.80;;
71080;SDS011;58740;50.672;18.690;2022-10-17T03:15:50;18.90;;;11.30;;
71080;SDS011;58740;50.672;18.690;2022-10-17T03:18:18;22.40;;;13.10;;
71080;SDS011;58740;50.672;18.690;2022-10-17T03:20:45;18.60;;;11.20;;
71080;SDS011;58740;50.672;18.690;2022-10-17T03:23:13;19.10;;;10.60;;
71080;SDS011;58740;50.672;18.690;2022-10-17T03:25:41;21.40;;;11.20;;
71080;SDS011;58740;50.672;18.690;2022-10-17T03:28:10;16.40;;;9.80;;
71080;SDS011;58740;50.672;18.690;2022-10-17T03:30:38;21.20;;;11.20;;
71080;SDS011;58740;50.672;18.690;2022-10-17T03:33:06;19.60;;;10.70;;
71080;SDS011;58740;50.672;18.690;2022-10-17T03:35:37;20.60;;;10.80;;
71080;SDS011;58740;50.672;18.690;2022-10-17T03:38:06;19.90;;;10.80;;
71080;SDS011;58740;50.672;18.690;2022-10-17T03:40:34;17.70;;;10.50;;
71080;SDS011;58740;50.672;18.690;2022-10-17T03:43:02;18.30;;;11.30;;
71080;SDS011;58740;50.672;18.690;2022-10-17T03:45:30;18.90;;;11.00;;
71080;SDS011;58740;50.672;18.690;2022-10-17T03:47:58;17.10;;;10.40;;
71080;SDS011;58740;50.672;18.690;2022-10-17T03:50:26;17.00;;;9.80;;
71080;SDS011;58740;50.672;18.690;2022-10-17T03:52:54;17.60;;;9.90;;
71080;SDS011;58740;50.672;18.690;2022-10-17T03:55:23;19.20;;;11.10;;
71080;SDS011;58740;50.672;18.690;2022-10-17T03:57:50;13.20;;;8.50;;
71080;SDS011;58740;50.672;18.690;2022-10-17T04:00:18;19.50;;;10.70;;
71080;SDS011;58740;50.672;18.690;2022-10-17T04:02:45;17.40;;;9.80;;
71080;SDS011;58740;50.672;18.690;2022-10-17T04:05:13;17.20;;;10.70;;
71080;SDS011;58740;50.672;18.690;2022-10-17T04:07:41;15.10;;;10.10;;
71080;SDS011;58740;50.672;18.690;2022-10-17T04:10:09;17.20;;;9.30;;
71080;SDS011;58740;50.672;18.690;2022-10-17T04:12:37;17.80;;;10.00;;
71080;SDS011;58740;50.672;18.690;2022-10-17T04:15:05;17.20;;;9.30;;
71080;SDS011;58740;50.672;18.690;2022-10-17T04:17:33;18.20;;;11.20;;
71080;SDS011;58740;50.672;18.690;2022-10-17T04:20:05;15.70;;;10.10;;
71080;SDS011;58740;50.672;18.690;2022-10-17T04:22:33;19.70;;;10.70;;
71080;SDS011;58740;50.672;18.690;2022-10-17T04:25:01;16.50;;;9.30;;
71080;SDS011;58740;50.672;18.690;2022-10-17T04:27:28;17.70;;;9.50;;
71080;SDS011;58740;50.672;18.690;2022-10-17T04:29:56;16.80;;;8.70;;
71080;SDS011;58740;50.672;18.690;2022-10-17T04:32:24;15.80;;;8.60;;
71080;SDS011;58740;50.672;18.690;2022-10-17T04:34:52;16.40;;;8.60;;
71080;SDS011;58740;50.672;18.690;2022-10-17T04:37:20;18.00;;;9.00;;
71080;SDS011;58740;50.672;18.690;2022-10-17T04:39:47;16.30;;;8.70;;
71080;SDS011;58740;50.672;18.690;2022-10-17T04:42:15;14.60;;;7.80;;
71080;SDS011;58740;50.672;18.690;2022-10-17T04:44:43;14.60;;;8.80;;
71080;SDS011;58740;50.672;18.690;2022-10-17T04:47:10;18.10;;;8.80;;
71080;SDS011;58740;50.672;18.690;2022-10-17T04:49:38;15.80;;;8.70;;
71080;SDS011;58740;50.672;18.690;2022-10-17T04:52:11;14.50;;;7.90;;
71080;SDS011;58740;50.672;18.690;2022-10-17T04:54:38;15.80;;;9.50;;
71080;SDS011;58740;50.672;18.690;2022-10-17T04:57:06;15.50;;;9.60;;
71080;SDS011;58740;50.672;18.690;2022-10-17T04:59:33;14.80;;;8.40;;
71080;SDS011;58740;50.672;18.690;2022-10-17T05:02:01;14.50;;;8.10;;
71080;SDS011;58740;50.672;18.690;2022-10-17T05:04:29;16.90;;;8.90;;
71080;SDS011;58740;50.672;18.690;2022-10-17T05:06:56;15.20;;;8.90;;
71080;SDS011;58740;50.672;18.690;2022-10-17T05:09:24;15.30;;;10.10;;
71080;SDS011;58740;50.672;18.690;2022-10-17T05:11:51;16.40;;;9.30;;
71080;SDS011;58740;50.672;18.690;2022-10-17T05:14:19;17.70;;;9.40;;
71080;SDS011;58740;50.672;18.690;2022-10-17T05:16:47;15.10;;;8.60;;
71080;SDS011;58740;50.672;18.690;2022-10-17T05:19:15;17.70;;;9.30;;
71080;SDS011;58740;50.672;18.690;2022-10-17T05:21:44;13.60;;;7.90;;
71080;SDS011;58740;50.672;18.690;2022-10-17T05:24:13;13.80;;;7.30;;
71080;SDS011;58740;50.672;18.690;2022-10-17T05:26:41;13.20;;;8.30;;
71080;SDS011;58740;50.672;18.690;2022-10-17T05:29:09;18.60;;;8.70;;
71080;SDS011;58740;50.672;18.690;2022-10-17T05:31:37;13.60;;;7.60;;
71080;SDS011;58740;50.672;18.690;2022-10-17T05:34:05;14.60;;;8.30;;
71080;SDS011;58740;50.672;18.690;2022-10-17T05:36:37;14.50;;;7.80;;
71080;SDS011;58740;50.672;18.690;2022-10-17T05:39:05;15.40;;;8.30;;
71080;SDS011;58740;50.672;18.690;2022-10-17T05:41:33;14.30;;;8.30;;
71080;SDS011;58740;50.672;18.690;2022-10-17T05:44:01;12.20;;;7.30;;
71080;SDS011;58740;50.672;18.690;2022-10-17T05:46:32;16.40;;;8.20;;
71080;SDS011;58740;50.672;18.690;2022-10-17T05:48:59;18.20;;;8.70;;
71080;SDS011;58740;50.672;18.690;2022-10-17T05:51:27;13.80;;;8.70;;
71080;SDS011;58740;50.672;18.690;2022-10-17T05:53:55;16.30;;;8.90;;
71080;SDS011;58740;50.672;18.690;2022-10-17T05:56:22;15.70;;;9.60;;
71080;SDS011;58740;50.672;18.690;2022-10-17T05:58:50;18.40;;;10.70;;
71080;SDS011;58740;50.672;18.690;2022-10-17T06:01:22;16.00;;;10.40;;
71080;SDS011;58740;50.672;18.690;2022-10-17T06:03:50;14.70;;;8.50;;
71080;SDS011;58740;50.672;18.690;2022-10-17T06:06:18;16.70;;;9.20;;
71080;SDS011;58740;50.672;18.690;2022-10-17T06:08:46;18.20;;;9.70;;
71080;SDS011;58740;50.672;18.690;2022-10-17T06:11:14;13.90;;;8.50;;
71080;SDS011;58740;50.672;18.690;2022-10-17T06:13:42;13.20;;;8.60;;
71080;SDS011;58740;50.672;18.690;2022-10-17T06:16:09;16.60;;;8.90;;
71080;SDS011;58740;50.672;18.690;2022-10-17T06:18:37;14.60;;;8.30;;
71080;SDS011;58740;50.672;18.690;2022-10-17T06:21:08;14.70;;;8.50;;
71080;SDS011;58740;50.672;18.690;2022-10-17T06:23:37;17.90;;;9.60;;
71080;SDS011;58740;50.672;18.690;2022-10-17T06:26:06;13.90;;;7.60;;
71080;SDS011;58740;50.672;18.690;2022-10-17T06:28:34;14.80;;;7.80;;
71080;SDS011;58740;50.672;18.690;2022-10-17T06:31:07;14.50;;;7.90;;
71080;SDS011;58740;50.672;18.690;2022-10-17T06:33:37;20.00;;;9.70;;
71080;SDS011;58740;50.672;18.690;2022-10-17T06:36:07;14.80;;;8.80;;
71080;SDS011;58740;50.672;18.690;2022-10-17T06:38:37;17.30;;;9.60;;
71080;SDS011;58740;50.672;18.690;2022-10-17T06:41:14;18.90;;;10.00;;
71080;SDS011;58740;50.672;18.690;2022-10-17T06:43:45;13.00;;;7.40;;
71080;SDS011;58740;50.672;18.690;2022-10-17T06:46:15;16.00;;;9.00;;
71080;SDS011;58740;50.672;18.690;2022-10-17T06:48:44;14.50;;;8.60;;
71080;SDS011;58740;50.672;18.690;2022-10-17T06:51:12;17.90;;;10.20;;
71080;SDS011;58740;50.672;18.690;2022-10-17T06:53:40;14.60;;;8.10;;
71080;SDS011;58740;50.672;18.690;2022-10-17T06:56:09;14.60;;;8.00;;
71080;SDS011;58740;50.672;18.690;2022-10-17T06:58:38;17.70;;;9.30;;
71080;SDS011;58740;50.672;18.690;2022-10-17T07:01:09;16.00;;;9.00;;
71080;SDS011;58740;50.672;18.690;2022-10-17T07:03:39;16.80;;;7.70;;
71080;SDS011;58740;50.672;18.690;2022-10-17T07:06:08;15.10;;;7.70;;
71080;SDS011;58740;50.672;18.690;2022-10-17T07:08:41;14.10;;;8.50;;
71080;SDS011;58740;50.672;18.690;2022-10-17T07:11:16;14.60;;;9.10;;
71080;SDS011;58740;50.672;18.690;2022-10-17T07:13:46;14.30;;;6.50;;
71080;SDS011;58740;50.672;18.690;2022-10-17T07:16:15;17.80;;;9.30;;
71080;SDS011;58740;50.672;18.690;2022-10-17T07:18:48;16.90;;;9.20;;
71080;SDS011;58740;50.672;18.690;2022-10-17T07:21:17;16.10;;;8.10;;
71080;SDS011;58740;50.672;18.690;2022-10-17T07:23:45;15.40;;;8.70;;
71080;SDS011;58740;50.672;18.690;2022-10-17T07:26:14;16.60;;;7.70;;
71080;SDS011;58740;50.672;18.690;2022-10-17T07:28:45;13.30;;;8.20;;
71080;SDS011;58740;50.672;18.690;2022-10-17T07:31:18;15.00;;;8.80;;
71080;SDS011;58740;50.672;18.690;2022-10-17T07:33:47;14.40;;;8.60;;
71080;SDS011;58740;50.672;18.690;2022-10-17T07:36:16;13.20;;;8.10;;
71080;SDS011;58740;50.672;18.690;2022-10-17T07:38:44;14.00;;;8.40;;
71080;SDS011;58740;50.672;18.690;2022-10-17T07:41:12;18.90;;;8.60;;
71080;SDS011;58740;50.672;18.690;2022-10-17T07:43:47;13.70;;;8.50;;
71080;SDS011;58740;50.672;18.690;2022-10-17T07:46:14;12.70;;;8.20;;
71080;SDS011;58740;50.672;18.690;2022-10-17T07:48:42;14.50;;;8.50;;
71080;SDS011;58740;50.672;18.690;2022-10-17T07:51:10;13.00;;;7.10;;
71080;SDS011;58740;50.672;18.690;2022-10-17T07:53:38;17.70;;;8.50;;
71080;SDS011;58740;50.672;18.690;2022-10-17T07:56:10;12.60;;;7.20;;
71080;SDS011;58740;50.672;18.690;2022-10-17T07:58:39;14.90;;;8.60;;
71080;SDS011;58740;50.672;18.690;2022-10-17T08:01:08;17.00;;;8.80;;
71080;SDS011;58740;50.672;18.690;2022-10-17T08:03:43;13.50;;;7.60;;
71080;SDS011;58740;50.672;18.690;2022-10-17T08:06:12;12.60;;;7.60;;
71080;SDS011;58740;50.672;18.690;2022-10-17T08:08:40;14.70;;;8.40;;
71080;SDS011;58740;50.672;18.690;2022-10-17T08:11:12;14.90;;;7.80;;
71080;SDS011;58740;50.672;18.690;2022-10-17T08:13:40;13.60;;;7.50;;
71080;SDS011;58740;50.672;18.690;2022-10-17T08:16:10;14.50;;;8.60;;
71080;SDS011;58740;50.672;18.690;2022-10-17T08:18:41;13.80;;;8.10;;
71080;SDS011;58740;50.672;18.690;2022-10-17T08:21:10;14.50;;;7.50;;
71080;SDS011;58740;50.672;18.690;2022-10-17T08:23:40;16.40;;;8.30;;
71080;SDS011;58740;50.672;18.690;2022-10-17T08:26:09;15.30;;;8.00;;
71080;SDS011;58740;50.672;18.690;2022-10-17T08:28:39;12.80;;;7.30;;
71080;SDS011;58740;50.672;18.690;2022-10-17T08:31:10;12.10;;;8.20;;
71080;SDS011;58740;50.672;18.690;2022-10-17T08:33:41;12.20;;;7.10;;
71080;SDS011;58740;50.672;18.690;2022-10-17T08:36:09;14.80;;;8.10;;
71080;SDS011;58740;50.672;18.690;2022-10-17T08:38:40;14.80;;;8.20;;
71080;SDS011;58740;50.672;18.690;2022-10-17T08:44:15;13.10;;;7.30;;
71080;SDS011;58740;50.672;18.690;2022-10-17T08:46:54;14.10;;;8.40;;
71080;SDS011;58740;50.672;18.690;2022-10-17T08:49:52;11.40;;;6.50;;
71080;SDS011;58740;50.672;18.690;2022-10-17T08:52:56;14.30;;;7.40;;
71080;SDS011;58740;50.672;18.690;2022-10-17T08:55:35;17.90;;;6.90;;
71080;SDS011;58740;50.672;18.690;2022-10-17T08:58:28;12.20;;;7.90;;
71080;SDS011;58740;50.672;18.690;2022-10-17T09:01:35;13.00;;;7.60;;
71080;SDS011;58740;50.672;18.690;2022-10-17T09:04:30;20.70;;;10.00;;
71080;SDS011;58740;50.672;18.690;2022-10-17T09:10:03;19.30;;;10.10;;
71080;SDS011;58740;50.672;18.690;2022-10-17T09:13:00;14.50;;;7.70;;
71080;SDS011;58740;50.672;18.690;2022-10-17T09:15:46;14.60;;;8.60;;
71080;SDS011;58740;50.672;18.690;2022-10-17T09:18:28;15.30;;;9.10;;
71080;SDS011;58740;50.672;18.690;2022-10-17T09:24:19;14.50;;;7.40;;
71080;SDS011;58740;50.672;18.690;2022-10-17T09:27:05;17.30;;;7.70;;
71080;SDS011;58740;50.672;18.690;2022-10-17T09:29:57;11.20;;;5.50;;
71080;SDS011;58740;50.672;18.690;2022-10-17T09:33:35;11.70;;;7.30;;
71080;SDS011;58740;50.672;18.690;2022-10-17T09:39:18;14.70;;;5.80;;
71080;SDS011;58740;50.672;18.690;2022-10-17T09:41:51;14.10;;;7.30;;
71080;SDS011;58740;50.672;18.690;2022-10-17T09:44:25;13.10;;;7.50;;
71080;SDS011;58740;50.672;18.690;2022-10-17T09:49:39;14.70;;;8.90;;
71080;SDS011;58740;50.672;18.690;2022-10-17T09:52:17;13.30;;;8.20;;
71080;SDS011;58740;50.672;18.690;2022-10-17T09:54:49;14.00;;;7.50;;
71080;SDS011;58740;50.672;18.690;2022-10-17T09:57:23;12.50;;;8.10;;
71080;SDS011;58740;50.672;18.690;2022-10-17T10:00:01;15.50;;;9.00;;
71080;SDS011;58740;50.672;18.690;2022-10-17T10:02:31;15.10;;;9.00;;
71080;SDS011;58740;50.672;18.690;2022-10-17T10:05:05;16.00;;;8.80;;
71080;SDS011;58740;50.672;18.690;2022-10-17T10:07:58;12.10;;;6.50;;
71080;SDS011;58740;50.672;18.690;2022-10-17T10:10:30;13.50;;;7.90;;
71080;SDS011;58740;50.672;18.690;2022-10-17T10:13:04;11.40;;;6.40;;
71080;SDS011;58740;50.672;18.690;2022-10-17T10:15:46;13.90;;;8.30;;
71080;SDS011;58740;50.672;18.690;2022-10-17T10:23:34;14.00;;;7.40;;
71080;SDS011;58740;50.672;18.690;2022-10-17T10:26:22;14.10;;;8.20;;
71080;SDS011;58740;50.672;18.690;2022-10-17T10:29:25;12.90;;;7.90;;
71080;SDS011;58740;50.672;18.690;2022-10-17T10:32:08;14.80;;;8.10;;
71080;SDS011;58740;50.672;18.690;2022-10-17T10:34:48;13.90;;;8.20;;
71080;SDS011;58740;50.672;18.690;2022-10-17T10:37:34;12.30;;;7.10;;
71080;SDS011;58740;50.672;18.690;2022-10-17T10:40:17;13.80;;;8.60;;
71080;SDS011;58740;50.672;18.690;2022-10-17T10:42:49;16.70;;;8.90;;
71080;SDS011;58740;50.672;18.690;2022-10-17T10:45:21;15.60;;;8.30;;
71080;SDS011;58740;50.672;18.690;2022-10-17T10:48:26;13.60;;;8.20;;
71080;SDS011;58740;50.672;18.690;2022-10-17T10:53:54;12.20;;;7.90;;
71080;SDS011;58740;50.672;18.690;2022-10-17T10:56:29;13.70;;;7.20;;
71080;SDS011;58740;50.672;18.690;2022-10-17T10:59:57;14.30;;;7.40;;
71080;SDS011;58740;50.672;18.690;2022-10-17T11:05:40;13.90;;;7.80;;
71080;SDS011;58740;50.672;18.690;2022-10-17T11:09:03;11.50;;;6.50;;
71080;SDS011;58740;50.672;18.690;2022-10-17T11:14:20;10.30;;;5.60;;
71080;SDS011;58740;50.672;18.690;2022-10-17T11:17:18;13.30;;;6.90;;
71080;SDS011;58740;50.672;18.690;2022-10-17T11:20:02;14.20;;;6.40;;
71080;SDS011;58740;50.672;18.690;2022-10-17T11:22:40;12.10;;;6.50;;
71080;SDS011;58740;50.672;18.690;2022-10-17T11:27:38;10.30;;;6.40;;
71080;SDS011;58740;50.672;18.690;2022-10-17T11:30:10;9.60;;;5.90;;
71080;SDS011;58740;50.672;18.690;2022-10-17T11:32:45;10.70;;;6.70;;
71080;SDS011;58740;50.672;18.690;2022-10-17T11:35:36;11.30;;;6.70;;
71080;SDS011;58740;50.672;18.690;2022-10-17T11:38:35;11.50;;;6.60;;
71080;SDS011;58740;50.672;18.690;2022-10-17T11:41:13;9.60;;;6.90;;
71080;SDS011;58740;50.672;18.690;2022-10-17T11:43:56;12.60;;;6.80;;
71080;SDS011;58740;50.672;18.690;2022-10-17T11:46:50;11.20;;;6.60;;
71080;SDS011;58740;50.672;18.690;2022-10-17T11:49:37;10.10;;;5.60;;
71080;SDS011;58740;50.672;18.690;2022-10-17T11:55:23;9.60;;;4.60;;
71080;SDS011;58740;50.672;18.690;2022-10-17T12:01:33;10.10;;;6.00;;
71080;SDS011;58740;50.672;18.690;2022-10-17T12:07:47;10.10;;;5.80;;
71080;SDS011;58740;50.672;18.690;2022-10-17T12:10:36;12.90;;;6.50;;
71080;SDS011;58740;50.672;18.690;2022-10-17T12:15:57;9.30;;;5.80;;
71080;SDS011;58740;50.672;18.690;2022-10-17T12:19:37;9.90;;;6.30;;
71080;SDS011;58740;50.672;18.690;2022-10-17T12:22:17;10.30;;;5.40;;
71080;SDS011;58740;50.672;18.690;2022-10-17T12:25:00;11.90;;;5.50;;
71080;SDS011;58740;50.672;18.690;2022-10-17T12:27:33;12.30;;;6.30;;
71080;SDS011;58740;50.672;18.690;2022-10-17T12:30:23;12.20;;;6.30;;
71080;SDS011;58740;50.672;18.690;2022-10-17T12:33:16;8.80;;;4.80;;
71080;SDS011;58740;50.672;18.690;2022-10-17T12:35:50;9.40;;;4.80;;
71080;SDS011;58740;50.672;18.690;2022-10-17T12:38:37;11.90;;;6.20;;
71080;SDS011;58740;50.672;18.690;2022-10-17T12:41:05;11.40;;;5.60;;
71080;SDS011;58740;50.672;18.690;2022-10-17T12:43:45;13.90;;;5.90;;
71080;SDS011;58740;50.672;18.690;2022-10-17T12:55:23;9.20;;;5.10;;
71080;SDS011;58740;50.672;18.690;2022-10-17T12:58:02;9.00;;;4.80;;
71080;SDS011;58740;50.672;18.690;2022-10-17T13:00:35;9.40;;;5.20;;
71080;SDS011;58740;50.672;18.690;2022-10-17T13:03:46;8.20;;;4.00;;
71080;SDS011;58740;50.672;18.690;2022-10-17T13:06:21;9.70;;;5.00;;
71080;SDS011;58740;50.672;18.690;2022-10-17T13:09:04;11.10;;;5.50;;
71080;SDS011;58740;50.672;18.690;2022-10-17T13:11:51;9.40;;;5.40;;
71080;SDS011;58740;50.672;18.690;2022-10-17T13:14:21;9.00;;;5.20;;
71080;SDS011;58740;50.672;18.690;2022-10-17T13:16:57;11.20;;;5.50;;
71080;SDS011;58740;50.672;18.690;2022-10-17T13:19:38;10.00;;;5.00;;
71080;SDS011;58740;50.672;18.690;2022-10-17T13:22:14;11.20;;;5.60;;
71080;SDS011;58740;50.672;18.690;2022-10-17T13:24:43;12.00;;;6.80;;
71080;SDS011;58740;50.672;18.690;2022-10-17T13:27:31;8.50;;;4.90;;
71080;SDS011;58740;50.672;18.690;2022-10-17T13:30:16;9.70;;;4.70;;
71080;SDS011;58740;50.672;18.690;2022-10-17T13:33:35;8.40;;;5.00;;
71080;SDS011;58740;50.672;18.690;2022-10-17T13:36:06;9.00;;;5.20;;
71080;SDS011;58740;50.672;18.690;2022-10-17T13:38:42;11.80;;;4.50;;
71080;SDS011;58740;50.672;18.690;2022-10-17T13:41:11;9.00;;;4.70;;
71080;SDS011;58740;50.672;18.690;2022-10-17T13:44:03;7.30;;;3.80;;
71080;SDS011;58740;50.672;18.690;2022-10-17T13:46:38;8.20;;;4.50;;
71080;SDS011;58740;50.672;18.690;2022-10-17T13:49:16;8.20;;;4.00;;
71080;SDS011;58740;50.672;18.690;2022-10-17T13:51:47;8.20;;;4.20;;
71080;SDS011;58740;50.672;18.690;2022-10-17T13:54:34;9.50;;;4.70;;
71080;SDS011;58740;50.672;18.690;2022-10-17T14:00:00;8.40;;;4.20;;
71080;SDS011;58740;50.672;18.690;2022-10-17T14:02:39;10.70;;;4.30;;
71080;SDS011;58740;50.672;18.690;2022-10-17T14:05:14;7.50;;;4.20;;
71080;SDS011;58740;50.672;18.690;2022-10-17T14:07:58;9.40;;;4.00;;
71080;SDS011;58740;50.672;18.690;2022-10-17T14:10:49;8.90;;;4.70;;
71080;SDS011;58740;50.672;18.690;2022-10-17T14:13:25;7.60;;;4.60;;
71080;SDS011;58740;50.672;18.690;2022-10-17T14:15:59;9.80;;;4.70;;
71080;SDS011;58740;50.672;18.690;2022-10-17T14:18:32;7.60;;;4.20;;
71080;SDS011;58740;50.672;18.690;2022-10-17T14:21:04;8.10;;;4.70;;
71080;SDS011;58740;50.672;18.690;2022-10-17T14:26:51;7.60;;;4.40;;
71080;SDS011;58740;50.672;18.690;2022-10-17T14:32:11;10.40;;;4.30;;
71080;SDS011;58740;50.672;18.690;2022-10-17T14:34:40;9.90;;;4.60;;
71080;SDS011;58740;50.672;18.690;2022-10-17T14:37:10;8.50;;;4.70;;
71080;SDS011;58740;50.672;18.690;2022-10-17T14:39:48;9.50;;;4.00;;
71080;SDS011;58740;50.672;18.690;2022-10-17T14:42:19;9.40;;;4.80;;
71080;SDS011;58740;50.672;18.690;2022-10-17T14:44:49;8.10;;;4.10;;
71080;SDS011;58740;50.672;18.690;2022-10-17T14:47:26;8.20;;;3.80;;
71080;SDS011;58740;50.672;18.690;2022-10-17T14:52:37;9.60;;;5.90;;
71080;SDS011;58740;50.672;18.690;2022-10-17T14:55:23;8.60;;;4.30;;
71080;SDS011;58740;50.672;18.690;2022-10-17T14:57:53;9.20;;;4.10;;
71080;SDS011;58740;50.672;18.690;2022-10-17T15:00:22;7.60;;;4.20;;
71080;SDS011;58740;50.672;18.690;2022-10-17T15:02:52;8.70;;;4.30;;
71080;SDS011;58740;50.672;18.690;2022-10-17T15:05:21;9.70;;;4.50;;
71080;SDS011;58740;50.672;18.690;2022-10-17T15:07:50;10.00;;;4.50;;
71080;SDS011;58740;50.672;18.690;2022-10-17T15:10:30;8.50;;;4.10;;
71080;SDS011;58740;50.672;18.690;2022-10-17T15:13:00;7.40;;;3.70;;
71080;SDS011;58740;50.672;18.690;2022-10-17T15:15:49;9.50;;;4.60;;
71080;SDS011;58740;50.672;18.690;2022-10-17T15:18:18;7.90;;;4.30;;
71080;SDS011;58740;50.672;18.690;2022-10-17T15:20:46;10.50;;;4.60;;
71080;SDS011;58740;50.672;18.690;2022-10-17T15:23:26;8.60;;;4.50;;
71080;SDS011;58740;50.672;18.690;2022-10-17T15:25:53;6.90;;;4.50;;
71080;SDS011;58740;50.672;18.690;2022-10-17T15:28:21;7.20;;;4.20;;
71080;SDS011;58740;50.672;18.690;2022-10-17T15:30:48;7.70;;;4.30;;
71080;SDS011;58740;50.672;18.690;2022-10-17T15:33:16;8.80;;;4.40;;
71080;SDS011;58740;50.672;18.690;2022-10-17T15:35:44;9.00;;;4.40;;
71080;SDS011;58740;50.672;18.690;2022-10-17T15:38:14;8.90;;;4.50;;
71080;SDS011;58740;50.672;18.690;2022-10-17T15:40:44;8.90;;;4.70;;
71080;SDS011;58740;50.672;18.690;2022-10-17T15:43:15;10.70;;;5.20;;
71080;SDS011;58740;50.672;18.690;2022-10-17T15:45:47;11.60;;;4.90;;
71080;SDS011;58740;50.672;18.690;2022-10-17T15:48:18;9.40;;;4.60;;
71080;SDS011;58740;50.672;18.690;2022-10-17T15:50:52;9.30;;;4.90;;
71080;SDS011;58740;50.672;18.690;2022-10-17T15:53:19;9.40;;;4.50;;
71080;SDS011;58740;50.672;18.690;2022-10-17T15:55:47;7.20;;;4.60;;
71080;SDS011;58740;50.672;18.690;2022-10-17T15:58:17;8.90;;;4.50;;
71080;SDS011;58740;50.672;18.690;2022-10-17T16:00:46;9.80;;;4.50;;
71080;SDS011;58740;50.672;18.690;2022-10-17T16:03:14;10.80;;;5.10;;
71080;SDS011;58740;50.672;18.690;2022-10-17T16:05:42;12.00;;;4.90;;
71080;SDS011;58740;50.672;18.690;2022-10-17T16:08:09;11.20;;;5.60;;
71080;SDS011;58740;50.672;18.690;2022-10-17T16:10:38;10.60;;;5.20;;
71080;SDS011;58740;50.672;18.690;2022-10-17T16:13:14;10.90;;;5.40;;
71080;SDS011;58740;50.672;18.690;2022-10-17T16:15:44;11.90;;;5.40;;
71080;SDS011;58740;50.672;18.690;2022-10-17T16:18:12;10.40;;;6.00;;
71080;SDS011;58740;50.672;18.690;2022-10-17T16:20:40;8.80;;;4.70;;
71080;SDS011;58740;50.672;18.690;2022-10-17T16:23:10;11.30;;;5.40;;
71080;SDS011;58740;50.672;18.690;2022-10-17T16:25:39;9.10;;;4.70;;
71080;SDS011;58740;50.672;18.690;2022-10-17T16:28:07;15.20;;;5.60;;
71080;SDS011;58740;50.672;18.690;2022-10-17T16:30:40;12.90;;;6.40;;
71080;SDS011;58740;50.672;18.690;2022-10-17T16:33:11;11.90;;;5.90;;